OERKHSSS

Guest
Details From OERK - Riyadh King Khaled Intl
To HSSS - Khartoum
Flight Number -
Tags Generated
Created
Modified
Stats Distance 975 nm / 1,805 km
Max Altitude 0 ft / 0 m
Waypoints 3
Social Downloads 0
Likes 0
Share VATSIM

Download

Looking for another format? Having issues loading an existing format? Contact us
Advertisement - Login to hide

Notes

Generated

Route

OERK SAMIR HSSS

ID Type Via Altitude Latitude Longitude Leg Dist Tot Dist Heading (true) Name
O OERK APT - 0 ft / 0 m 24.97685˚ 46.70200˚ - 0 nm - -
SAMIR FIX - 0 ft / 0 m 20.74833˚ 39.56694˚ 469 nm 469 nm 239° / 236° -
O HSSS APT - 0 ft / 0 m 15.60296˚ 32.55303˚ 505 nm 974 nm 233° / 231° -

Altitude Profile

Advertisement - Login to hide

Weather


0- 5 10 15 20 25 30 35+ Temperature / ° C

Clouds and Precipitation
Forecast for 2017-12-14 06:00 UTC. Updated an hour ago

Ground ~20,000 ft ~40,000 ft Winds

OERK

Details ICAO OERK (RUH)
Name Riyadh King Khaled Intl
Region Saudi Arabia
Timezone Asia/Riyadh (UTC+3.0)
Stats Elevation 2,049 ft / 625 m (AMSL)
Location 24.957449° 46.698842°
Runways 2
Magnetic Variation 3.041° E

METAR

OERK 140400Z 00000KT CAVOK 10/M10 Q1018 NOSIG

Decode

TAF

Not found

Departure Runways

ID Width Length Bearing (true) Bearing (mag) Surface Threshold Offset Overrun Length
15L 197 ft / 60 m 13,832 ft / 4,216 m 150.17° 147.13° Asphalt 0 ft / 0 m 385 ft / 117 m
15R 197 ft / 60 m 13,835 ft / 4,217 m 150.16° 147.12° Asphalt 0 ft / 0 m 385 ft / 117 m
33L 197 ft / 60 m 13,835 ft / 4,217 m 330.17° 327.13° Asphalt 0 ft / 0 m 385 ft / 117 m
33R 197 ft / 60 m 13,832 ft / 4,216 m 330.18° 327.14° Asphalt 0 ft / 0 m 385 ft / 117 m

HSSS

Details ICAO HSSS (KRT)
Name KHARTOUM
Region Sudan and South Sudan
Timezone Africa/Khartoum (UTC+3.0)
Stats Elevation 1,265 ft / 386 m (AMSL)
Location 15.589499° 32.553159°
Runways 1
Magnetic Variation 3.385° E

METAR

HSSS 140400Z 36009KT CAVOK 22/08 Q1013 NOSIG

Decode

TAF

TAF HSSS 132300Z 1400/1506 36010G20KT CAVOK TEMPO 1403/1409 6000

Decode

Destination Runways

ID Width Length Bearing (true) Bearing (mag) Surface Threshold Offset Overrun Length
18 148 ft / 45 m 9,822 ft / 2,994 m 179.48° 176.10° Asphalt 0 ft / 0 m 220 ft / 67 m
36 148 ft / 45 m 9,822 ft / 2,994 m 359.48° 356.10° Asphalt 0 ft / 0 m 215 ft / 66 m

Approach Navaids

Runway Type Ident Frequency Range Bearing (true) Bearing (mag) Slope Elevation
18 Localiser KIS 110.70 MHz 18 nm / 33 km 180.05° 176.66° - 1,265 ft / 386 m (AMSL)
18 Glidescope KIS 110.70 MHz 10 nm / 19 km 179.48° 176.10° 3.00° 1,265 ft / 386 m (AMSL)
36 Localiser KIN 109.70 MHz 18 nm / 33 km 359.46° 356.08° - 1,265 ft / 386 m (AMSL)
36 Glidescope KIN 109.70 MHz 10 nm / 19 km 359.48° 356.10° 3.00° 1,265 ft / 386 m (AMSL)

Popular Alternatives